createdAt,value
2019-03-25T00:03:03.878Z,8.20
2019-03-25T00:08:08.970Z,8.30
2019-03-25T00:13:13.507Z,8.30
2019-03-25T00:18:17.737Z,8.40
2019-03-25T00:23:22.269Z,8.30
2019-03-25T00:28:26.754Z,8.30
2019-03-25T00:33:30.941Z,8.20
2019-03-25T00:38:35.185Z,8.30
2019-03-25T00:43:39.405Z,8.30
2019-03-25T00:48:43.873Z,8.40
2019-03-25T00:53:48.100Z,8.20
2019-03-25T00:58:52.317Z,8.10
2019-03-25T01:03:56.865Z,8.10
2019-03-25T01:09:01.113Z,8.20
2019-03-25T01:14:05.573Z,8.10
2019-03-25T01:19:09.838Z,7.90
2019-03-25T01:24:14.080Z,7.70
2019-03-25T01:29:18.307Z,7.70
2019-03-25T01:34:22.526Z,7.70
2019-03-25T01:39:26.757Z,7.60
2019-03-25T01:44:30.949Z,7.40
2019-03-25T01:49:35.366Z,7.50
2019-03-25T01:54:39.646Z,7.30
2019-03-25T01:59:44.329Z,7.10
2019-03-25T02:04:48.656Z,7.30
2019-03-25T02:09:52.861Z,7.20
2019-03-25T02:14:57.091Z,7.10
2019-03-25T02:20:01.293Z,7.10
2019-03-25T02:25:05.930Z,7.10
2019-03-25T02:30:11.027Z,7.00
2019-03-25T02:35:15.711Z,6.80
2019-03-25T02:40:19.890Z,6.70
2019-03-25T02:45:24.122Z,6.50
2019-03-25T02:50:28.435Z,6.30
2019-03-25T02:55:41.478Z,6.30
2019-03-25T03:00:39.695Z,6.20
2019-03-25T03:05:43.891Z,6.10
2019-03-25T03:10:48.112Z,6.00
2019-03-25T03:15:52.337Z,6.00
2019-03-25T03:20:56.561Z,5.90
2019-03-25T03:26:01.411Z,5.90
2019-03-25T03:31:05.650Z,5.90
2019-03-25T03:36:09.897Z,5.80
2019-03-25T03:41:14.177Z,5.60
2019-03-25T03:46:18.386Z,5.60
2019-03-25T03:51:22.990Z,5.70
2019-03-25T03:56:27.821Z,6.10
2019-03-25T04:01:32.106Z,6.10
2019-03-25T04:06:36.311Z,6.20
2019-03-25T04:11:41.065Z,6.20
2019-03-25T04:16:45.945Z,6.20
2019-03-25T04:21:50.404Z,6.20
2019-03-25T04:26:54.944Z,6.30
2019-03-25T04:31:59.555Z,6.30
2019-03-25T04:37:03.768Z,6.40
2019-03-25T04:42:07.998Z,6.50
2019-03-25T04:47:12.230Z,6.60
2019-03-25T04:52:16.452Z,6.80
2019-03-25T04:57:20.650Z,6.90
2019-03-25T05:02:24.894Z,6.90
2019-03-25T05:07:29.093Z,6.80
2019-03-25T05:12:33.315Z,6.70
2019-03-25T05:17:37.548Z,6.80
2019-03-25T05:22:41.756Z,6.60
2019-03-25T05:27:46.241Z,6.30
2019-03-25T05:32:50.573Z,6.20
2019-03-25T05:37:54.853Z,6.30
2019-03-25T05:43:00.041Z,6.40
2019-03-25T05:48:04.508Z,6.50
2019-03-25T05:53:08.719Z,6.50
2019-03-25T05:58:12.927Z,6.70
2019-03-25T06:03:17.145Z,6.90
2019-03-25T06:08:21.347Z,7.00
2019-03-25T06:13:25.533Z,7.00
2019-03-25T06:18:29.741Z,6.90
2019-03-25T06:23:33.946Z,6.90
2019-03-25T06:28:38.136Z,6.80
2019-03-25T06:33:42.333Z,7.10
2019-03-25T06:38:46.530Z,7.30
2019-03-25T06:43:50.757Z,7.70
2019-03-25T06:48:54.966Z,7.90
2019-03-25T06:53:59.179Z,8.20
2019-03-25T06:59:03.412Z,8.30
2019-03-25T07:04:07.615Z,8.00
2019-03-25T07:09:12.091Z,7.70
2019-03-25T07:14:16.687Z,7.40
2019-03-25T07:19:20.952Z,7.30
2019-03-25T07:24:25.416Z,7.30
2019-03-25T07:29:29.626Z,7.30
2019-03-25T07:34:34.052Z,7.50
2019-03-25T07:39:38.238Z,7.60
2019-03-25T07:44:42.475Z,7.80
2019-03-25T07:49:46.763Z,7.70
2019-03-25T07:54:51.008Z,7.20
2019-03-25T07:59:55.329Z,7.10
2019-03-25T08:04:59.605Z,7.30
2019-03-25T08:10:04.819Z,7.70
2019-03-25T08:15:09.277Z,7.60
2019-03-25T08:20:14.366Z,7.30
2019-03-25T08:25:19.013Z,7.00
2019-03-25T08:30:23.549Z,7.10
2019-03-25T08:35:27.883Z,7.10
2019-03-25T08:40:32.409Z,6.70
2019-03-25T08:45:36.649Z,6.00
2019-03-25T08:50:40.896Z,5.80
2019-03-25T08:55:45.105Z,5.60
2019-03-25T09:00:49.369Z,5.60
2019-03-25T09:05:53.613Z,5.50
2019-03-25T09:10:57.826Z,5.40
2019-03-25T09:16:02.058Z,5.40
2019-03-25T09:21:06.581Z,5.50
2019-03-25T09:26:11.053Z,5.70
2019-03-25T09:31:16.729Z,5.60
2019-03-25T09:36:22.736Z,5.70
2019-03-25T09:41:27.049Z,5.80
2019-03-25T09:46:31.258Z,6.00
2019-03-25T09:51:35.555Z,6.30
2019-03-25T09:56:40.138Z,6.60
2019-03-25T10:01:44.462Z,6.90
2019-03-25T10:06:49.053Z,7.10
2019-03-25T10:11:53.285Z,7.50
2019-03-25T10:16:57.805Z,8.90
2019-03-25T10:22:02.239Z,11.00
2019-03-25T10:27:06.445Z,13.20
2019-03-25T10:32:10.905Z,13.20
2019-03-25T10:37:15.108Z,11.30
2019-03-25T10:42:19.313Z,8.00
2019-03-25T10:47:23.837Z,5.80
2019-03-25T10:52:28.042Z,5.80
2019-03-25T10:57:32.349Z,7.00
2019-03-25T11:02:36.561Z,13.00
2019-03-25T11:12:45.581Z,20.40
2019-03-25T11:17:49.778Z,18.70
2019-03-25T11:22:54.306Z,14.70
2019-03-25T11:27:58.522Z,12.90
2019-03-25T11:33:02.835Z,11.40
2019-03-25T11:38:07.039Z,10.60
2019-03-25T11:43:11.628Z,10.00
2019-03-25T11:48:16.204Z,10.10
2019-03-25T11:53:20.420Z,10.60
2019-03-25T11:58:24.653Z,10.40
2019-03-25T12:03:29.258Z,9.60
2019-03-25T12:08:33.526Z,9.50
2019-03-25T12:13:37.738Z,12.90
2019-03-25T12:18:42.136Z,11.30
2019-03-25T12:23:46.750Z,14.60
2019-03-25T12:28:51.310Z,18.40
2019-03-25T12:33:55.578Z,15.60
2019-03-25T12:38:59.808Z,12.70
2019-03-25T12:44:04.324Z,11.60
2019-03-25T12:49:09.098Z,11.30
2019-03-25T12:54:13.944Z,13.80
2019-03-25T12:59:18.480Z,14.60
2019-03-25T13:04:22.715Z,17.50
2019-03-25T13:09:26.909Z,18.00
2019-03-25T13:14:31.138Z,18.70
2019-03-25T13:19:35.370Z,18.10
2019-03-25T13:24:39.597Z,18.60
2019-03-25T13:29:52.033Z,15.00
2019-03-25T13:34:50.214Z,16.00
2019-03-25T13:39:54.612Z,17.10
2019-03-25T13:44:58.993Z,16.40
2019-03-25T13:50:01.852Z,14.50
2019-03-25T13:55:07.207Z,13.40
2019-03-25T14:00:12.051Z,12.30
2019-03-25T14:05:16.607Z,11.50
2019-03-25T14:10:20.905Z,11.00
2019-03-25T14:15:25.117Z,10.90
2019-03-25T14:20:29.307Z,10.50
2019-03-25T14:25:33.655Z,10.20
2019-03-25T14:30:37.850Z,9.70
2019-03-25T14:35:42.056Z,9.80
2019-03-25T14:40:46.292Z,10.70
2019-03-25T14:45:50.577Z,11.20
2019-03-25T14:50:54.805Z,11.00
2019-03-25T14:55:59.034Z,10.90
2019-03-25T15:01:03.249Z,10.10
2019-03-25T15:06:07.442Z,9.90
2019-03-25T15:11:11.651Z,9.30
2019-03-25T15:16:16.600Z,7.10
2019-03-25T15:21:20.809Z,6.30
2019-03-25T15:26:25.024Z,6.40
2019-03-25T15:31:29.198Z,6.60
2019-03-25T15:36:33.473Z,6.90
2019-03-25T15:41:37.732Z,7.20
2019-03-25T15:46:42.537Z,7.50
2019-03-25T15:51:46.801Z,7.30
2019-03-25T15:56:51.126Z,7.30
2019-03-25T16:01:55.315Z,7.40
2019-03-25T16:06:59.750Z,7.20
2019-03-25T16:12:05.071Z,7.30
2019-03-25T16:17:09.666Z,7.50
2019-03-25T16:22:14.108Z,8.60
2019-03-25T16:27:18.289Z,9.50
2019-03-25T16:32:22.771Z,9.70
2019-03-25T16:37:27.005Z,9.40
2019-03-25T16:42:31.467Z,9.20
2019-03-25T16:47:36.031Z,8.70
2019-03-25T16:52:40.532Z,8.30
2019-03-25T16:57:44.725Z,8.00
2019-03-25T17:02:48.961Z,7.80
2019-03-25T17:07:53.163Z,7.10
2019-03-25T17:12:57.353Z,6.10
2019-03-25T17:18:01.570Z,5.70
2019-03-25T17:23:05.763Z,5.60
2019-03-25T17:28:10.312Z,5.30
2019-03-25T17:33:14.633Z,5.30
2019-03-25T17:38:19.897Z,5.20
2019-03-25T17:43:24.338Z,5.20
2019-03-25T17:48:28.542Z,5.00
2019-03-25T17:53:32.743Z,5.00
2019-03-25T17:58:36.952Z,5.00
2019-03-25T18:03:41.501Z,5.10
2019-03-25T18:08:46.099Z,5.10
2019-03-25T18:13:50.522Z,5.10
2019-03-25T18:18:54.713Z,5.10
2019-03-25T18:23:58.909Z,5.20
2019-03-25T18:29:03.365Z,5.20
2019-03-25T18:34:07.640Z,5.20
2019-03-25T18:39:11.855Z,5.00
2019-03-25T18:44:16.086Z,5.10
2019-03-25T18:49:20.619Z,5.00
2019-03-25T18:54:25.818Z,5.10
2019-03-25T18:59:30.177Z,5.30
2019-03-25T19:04:34.501Z,5.20
2019-03-25T19:09:39.222Z,5.10
2019-03-25T19:14:43.462Z,5.00
2019-03-25T19:19:47.971Z,5.20
2019-03-25T19:24:52.195Z,5.10
2019-03-25T19:29:56.672Z,5.00
2019-03-25T19:35:01.366Z,5.10
2019-03-25T19:40:06.114Z,4.90
2019-03-25T19:45:10.712Z,4.90
2019-03-25T19:50:15.807Z,5.00
2019-03-25T19:55:20.509Z,4.90
2019-03-25T20:00:35.454Z,4.80
2019-03-25T20:05:40.113Z,4.90
2019-03-25T20:10:44.498Z,5.10
2019-03-25T20:15:48.865Z,5.00
2019-03-25T20:20:53.503Z,5.10
2019-03-25T20:25:58.337Z,4.90
2019-03-25T20:31:02.631Z,4.90
2019-03-25T20:36:06.977Z,5.10
2019-03-25T20:41:11.540Z,4.90
2019-03-25T20:46:15.787Z,4.70
2019-03-25T20:51:20.133Z,4.80
2019-03-25T20:56:24.621Z,4.70
2019-03-25T21:01:29.107Z,4.50
2019-03-25T21:06:33.497Z,4.40
2019-03-25T21:11:37.894Z,4.40
2019-03-25T21:16:42.673Z,4.70
2019-03-25T21:21:47.267Z,5.00
2019-03-25T21:26:51.627Z,4.80
2019-03-25T21:31:56.125Z,4.80
2019-03-25T21:37:00.551Z,4.70
2019-03-25T21:42:04.993Z,4.80
2019-03-25T21:47:09.871Z,4.70
2019-03-25T21:52:14.557Z,4.60
2019-03-25T21:57:18.831Z,4.30
2019-03-25T22:02:23.387Z,4.20
2019-03-25T22:07:27.770Z,4.00
2019-03-25T22:12:32.259Z,4.00
2019-03-25T22:17:37.915Z,3.80
2019-03-25T22:22:42.271Z,4.00
2019-03-25T22:27:46.577Z,3.80
2019-03-25T22:32:50.794Z,3.90
2019-03-25T22:37:55.011Z,4.30
2019-03-25T22:42:59.230Z,4.50
2019-03-25T22:48:03.517Z,4.60
2019-03-25T22:53:08.015Z,4.60
2019-03-25T22:58:12.386Z,4.60
2019-03-25T23:03:16.898Z,4.50
2019-03-25T23:08:21.123Z,4.40
2019-03-25T23:13:25.560Z,4.40
2019-03-25T23:18:29.761Z,4.40
2019-03-25T23:23:33.987Z,4.30
2019-03-25T23:28:38.457Z,4.30
2019-03-25T23:33:52.248Z,3.90
2019-03-25T23:38:48.605Z,3.50
2019-03-25T23:43:52.809Z,3.40
2019-03-25T23:49:03.965Z,3.10
2019-03-25T23:54:12.137Z,3.10
2019-03-25T23:59:16.622Z,3.10
